Time;durP1;ratioP1;P1;durP2;ratioP2;P2;SDS_P1;SDS_P2;PMS_P1;PMS_P2;Temp;Humidity;BMP_temperature;BMP_pressure;BME280_temperature;BME280_humidity;BME280_pressure;Samples;Min_cycle;Max_cycle;Signal;HPM_P1;HPM_P2
2021/06/16 00:00:25;;;;;;;24.15;5.82;;;;;;;;;;5091102;28;20020;-38
2021/06/16 00:02:52;;;;;;;26.30;6.75;;;;;;;;;;5090524;28;20020;-37
2021/06/16 00:05:21;;;;;;;27.17;6.78;;;;;;;;;;5090530;28;20019;-46
2021/06/16 00:07:48;;;;;;;23.20;6.65;;;;;;;;;;5085225;28;20189;-52
2021/06/16 00:10:16;;;;;;;24.23;6.53;;;;;;;;;;5084518;28;20020;-39
2021/06/16 00:12:43;;;;;;;19.35;5.63;;;;;;;;;;5077546;28;20043;-40
2021/06/16 00:15:13;;;;;;;27.25;7.03;;;;;;;;;;5090823;28;20485;-39
2021/06/16 00:17:41;;;;;;;23.17;6.05;;;;;;;;;;5091055;28;20103;-51
2021/06/16 00:20:08;;;;;;;26.10;6.70;;;;;;;;;;5090760;28;20028;-53
2021/06/16 00:22:35;;;;;;;33.97;7.13;;;;;;;;;;5078414;28;20022;-50
2021/06/16 00:25:02;;;;;;;22.33;5.88;;;;;;;;;;5090978;28;20024;-42
2021/06/16 00:27:29;;;;;;;32.42;6.57;;;;;;;;;;5090657;28;20041;-49
2021/06/16 00:29:56;;;;;;;36.15;7.47;;;;;;;;;;5091539;28;20020;-52
2021/06/16 00:32:23;;;;;;;30.80;7.35;;;;;;;;;;5079201;28;20032;-49
2021/06/16 00:34:51;;;;;;;31.40;7.00;;;;;;;;;;5088789;28;20092;-38
2021/06/16 00:37:21;;;;;;;44.97;7.20;;;;;;;;;;5090840;28;20016;-39
2021/06/16 00:39:48;;;;;;;27.48;7.53;;;;;;;;;;5091135;28;20013;-40
2021/06/16 00:42:15;;;;;;;32.38;7.45;;;;;;;;;;5090586;28;20020;-40
2021/06/16 00:44:42;;;;;;;33.28;6.70;;;;;;;;;;5091134;28;20020;-45
2021/06/16 00:47:09;;;;;;;29.17;6.63;;;;;;;;;;5092383;28;20028;-36
2021/06/16 00:49:36;;;;;;;24.35;6.70;;;;;;;;;;5094303;28;20120;-39
2021/06/16 00:52:03;;;;;;;32.50;7.95;;;;;;;;;;5094416;28;20383;-41
2021/06/16 00:54:34;;;;;;;37.95;8.38;;;;;;;;;;5094430;28;20078;-37
2021/06/16 00:57:01;;;;;;;31.38;8.00;;;;;;;;;;5084811;28;20074;-37
2021/06/16 00:59:33;;;;;;;33.80;8.05;;;;;;;;;;5074484;28;20048;-43
2021/06/16 01:01:59;;;;;;;;;;;;;;;;;;5080771;28;20430;-44
2021/06/16 01:04:29;;;;;;;36.00;8.10;;;;;;;;;;5084252;28;19931;-45
2021/06/16 01:06:59;;;;;;;35.88;8.48;;;;;;;;;;5092371;28;20538;-47
2021/06/16 01:09:44;;;;;;;45.55;8.02;;;;;;;;;;5094244;28;20053;-40
2021/06/16 01:12:24;;;;;;;42.45;8.50;;;;;;;;;;5093365;28;20012;-42
2021/06/16 01:14:55;;;;;;;23.60;7.75;;;;;;;;;;5083832;28;20119;-38
2021/06/16 01:17:24;;;;;;;27.87;7.93;;;;;;;;;;5088347;28;20030;-40
2021/06/16 01:20:00;;;;;;;28.33;7.35;;;;;;;;;;5094145;28;20262;-37
2021/06/16 01:22:32;;;;;;;33.35;7.38;;;;;;;;;;5094368;28;20081;-38
2021/06/16 01:25:04;;;;;;;26.38;7.97;;;;;;;;;;5094115;28;20028;-42
2021/06/16 01:27:32;;;;;;;32.43;8.37;;;;;;;;;;5094592;28;20035;-38
2021/06/16 01:29:59;;;;;;;25.10;6.85;;;;;;;;;;5094391;28;20027;-43
2021/06/16 01:32:26;;;;;;;22.85;6.85;;;;;;;;;;5094634;28;20459;-39
2021/06/16 01:34:54;;;;;;;24.05;7.15;;;;;;;;;;5094225;28;20031;-38
2021/06/16 01:37:21;;;;;;;23.92;7.63;;;;;;;;;;5093841;28;20031;-38
2021/06/16 01:39:48;;;;;;;30.45;7.05;;;;;;;;;;5094068;28;20016;-39
2021/06/16 01:42:18;;;;;;;27.48;7.85;;;;;;;;;;5094337;28;20024;-40
2021/06/16 01:44:46;;;;;;;22.80;7.32;;;;;;;;;;5094158;28;20024;-41
2021/06/16 01:47:15;;;;;;;27.23;7.75;;;;;;;;;;5088236;28;20020;-39
2021/06/16 01:49:43;;;;;;;22.63;7.72;;;;;;;;;;5089742;28;20442;-45
2021/06/16 01:52:10;;;;;;;29.35;6.70;;;;;;;;;;5092864;28;20046;-39
2021/06/16 01:54:38;;;;;;;20.90;6.63;;;;;;;;;;5092673;28;20104;-45
2021/06/16 01:57:05;;;;;;;22.55;6.85;;;;;;;;;;5092929;28;20016;-45
2021/06/16 01:59:33;;;;;;;17.65;6.68;;;;;;;;;;5093298;28;20038;-40
2021/06/16 02:02:00;;;;;;;26.52;6.70;;;;;;;;;;5094410;28;20012;-38
2021/06/16 02:04:27;;;;;;;21.67;6.85;;;;;;;;;;5085578;28;20395;-38
2021/06/16 02:07:23;;;;;;;25.88;8.05;;;;;;;;;;5087500;28;20078;-42
2021/06/16 02:09:51;;;;;;;20.30;6.93;;;;;;;;;;5062362;28;20032;-46
2021/06/16 02:12:19;;;;;;;19.30;7.40;;;;;;;;;;5076231;28;20024;-39
2021/06/16 02:14:57;;;;;;;29.13;7.78;;;;;;;;;;5073843;28;20020;-55
2021/06/16 02:17:26;;;;;;;21.05;6.40;;;;;;;;;;5077151;28;20025;-37
2021/06/16 02:19:53;;;;;;;30.88;7.25;;;;;;;;;;5073620;28;20409;-43
2021/06/16 02:22:21;;;;;;;32.08;6.80;;;;;;;;;;5075582;28;20005;-38
2021/06/16 02:24:48;;;;;;;23.88;6.32;;;;;;;;;;5093619;28;20050;-40
2021/06/16 02:27:15;;;;;;;26.55;6.75;;;;;;;;;;5093344;28;20066;-38
2021/06/16 02:29:42;;;;;;;21.52;6.97;;;;;;;;;;5090182;28;20047;-39
2021/06/16 02:32:09;;;;;;;26.08;6.80;;;;;;;;;;5092873;28;20095;-42
2021/06/16 02:34:36;;;;;;;19.10;6.90;;;;;;;;;;5092958;28;20024;-38
2021/06/16 02:37:06;;;;;;;21.17;6.50;;;;;;;;;;5090306;28;20028;-38
2021/06/16 02:39:33;;;;;;;28.65;6.78;;;;;;;;;;5092691;28;20040;-42
2021/06/16 02:42:00;;;;;;;20.08;6.43;;;;;;;;;;5093794;28;20076;-44
2021/06/16 02:44:27;;;;;;;25.05;7.20;;;;;;;;;;5088287;28;20035;-46
2021/06/16 02:46:55;;;;;;;23.52;7.15;;;;;;;;;;5092615;28;20375;-39
2021/06/16 02:49:25;;;;;;;21.92;6.60;;;;;;;;;;5093316;28;20020;-38
2021/06/16 02:51:52;;;;;;;14.85;6.07;;;;;;;;;;5093241;28;20044;-40
2021/06/16 02:54:20;;;;;;;24.25;7.00;;;;;;;;;;5093738;28;20020;-42
2021/06/16 02:56:47;;;;;;;23.27;6.78;;;;;;;;;;5093066;28;20031;-40
2021/06/16 02:59:19;;;;;;;29.40;6.85;;;;;;;;;;5093731;28;20020;-39
2021/06/16 03:01:48;;;;;;;28.13;6.82;;;;;;;;;;5093297;28;20023;-40
2021/06/16 03:04:15;;;;;;;19.70;6.50;;;;;;;;;;5093480;28;20024;-44
2021/06/16 03:06:44;;;;;;;19.38;6.70;;;;;;;;;;5092842;28;20024;-39
2021/06/16 03:09:13;;;;;;;19.17;6.22;;;;;;;;;;5093053;28;20028;-39
2021/06/16 03:11:40;;;;;;;27.33;6.63;;;;;;;;;;5092868;28;20024;-39
2021/06/16 03:14:07;;;;;;;23.73;6.43;;;;;;;;;;5093140;28;20073;-40
2021/06/16 03:16:35;;;;;;;17.95;6.65;;;;;;;;;;5092827;28;20026;-40
2021/06/16 03:19:02;;;;;;;23.25;7.32;;;;;;;;;;5093259;28;20024;-40
2021/06/16 03:21:30;;;;;;;19.67;6.38;;;;;;;;;;5092887;28;20129;-40
2021/06/16 03:23:57;;;;;;;19.25;6.85;;;;;;;;;;5093154;28;20391;-44
2021/06/16 03:26:27;;;;;;;14.45;5.90;;;;;;;;;;5092467;28;20024;-39
2021/06/16 03:28:55;;;;;;;17.50;5.90;;;;;;;;;;5092956;28;20036;-39
2021/06/16 03:31:22;;;;;;;22.48;8.27;;;;;;;;;;5092823;28;20479;-37
2021/06/16 03:33:50;;;;;;;16.52;6.20;;;;;;;;;;5092889;28;20054;-41
2021/06/16 03:36:18;;;;;;;17.70;6.68;;;;;;;;;;5092607;28;20577;-39
2021/06/16 03:38:46;;;;;;;19.75;6.93;;;;;;;;;;5092230;28;20106;-42
2021/06/16 03:41:13;;;;;;;18.42;6.00;;;;;;;;;;5092702;28;20498;-39
2021/06/16 03:43:41;;;;;;;16.10;6.05;;;;;;;;;;5092236;28;20039;-39
2021/06/16 03:46:10;;;;;;;15.63;6.40;;;;;;;;;;5092574;28;20031;-40
2021/06/16 03:48:37;;;;;;;15.80;6.10;;;;;;;;;;5091923;28;20051;-41
2021/06/16 03:51:05;;;;;;;14.93;6.40;;;;;;;;;;5092484;28;20036;-39
2021/06/16 03:53:33;;;;;;;16.25;6.00;;;;;;;;;;5092251;28;20517;-43
2021/06/16 03:56:00;;;;;;;15.18;6.45;;;;;;;;;;5092552;28;20470;-43
2021/06/16 03:58:27;;;;;;;15.95;7.43;;;;;;;;;;5091724;28;20442;-42
2021/06/16 04:00:55;;;;;;;17.90;6.32;;;;;;;;;;5092543;28;20097;-44
2021/06/16 04:03:22;;;;;;;17.48;6.82;;;;;;;;;;5092233;28;20020;-47
2021/06/16 04:05:49;;;;;;;19.63;6.60;;;;;;;;;;5092393;28;20016;-43
2021/06/16 04:08:16;;;;;;;16.10;6.07;;;;;;;;;;5091401;28;20119;-46
2021/06/16 04:10:45;;;;;;;13.05;6.38;;;;;;;;;;5092292;28;20506;-44
2021/06/16 04:13:12;;;;;;;16.27;6.53;;;;;;;;;;5091585;28;20043;-55
2021/06/16 04:15:40;;;;;;;17.83;6.30;;;;;;;;;;5092344;28;20026;-47
2021/06/16 04:18:07;;;;;;;17.70;7.05;;;;;;;;;;5092116;28;20027;-42
2021/06/16 04:20:34;;;;;;;15.82;6.88;;;;;;;;;;5091727;28;20047;-39
2021/06/16 04:23:01;;;;;;;15.32;6.55;;;;;;;;;;5091763;28;20094;-41
2021/06/16 04:25:29;;;;;;;15.45;6.50;;;;;;;;;;5091708;28;20024;-46
2021/06/16 04:27:56;;;;;;;12.90;6.97;;;;;;;;;;5091959;28;20044;-44
2021/06/16 04:30:24;;;;;;;14.75;6.60;;;;;;;;;;5091675;28;20028;-47
2021/06/16 04:32:51;;;;;;;12.27;6.25;;;;;;;;;;5092226;28;20024;-48
2021/06/16 04:35:19;;;;;;;13.13;6.57;;;;;;;;;;5091474;28;20062;-44
2021/06/16 04:37:47;;;;;;;14.02;6.50;;;;;;;;;;5092125;28;20085;-44
2021/06/16 04:40:14;;;;;;;14.55;6.45;;;;;;;;;;5091587;28;20091;-47
2021/06/16 04:42:41;;;;;;;13.15;6.53;;;;;;;;;;5092016;28;20039;-44
2021/06/16 04:45:08;;;;;;;15.27;6.35;;;;;;;;;;5091382;28;20020;-47
2021/06/16 04:47:35;;;;;;;14.45;6.80;;;;;;;;;;5091765;28;20031;-41
2021/06/16 04:50:04;;;;;;;12.48;6.20;;;;;;;;;;5091458;28;20023;-46
2021/06/16 04:52:31;;;;;;;15.73;6.30;;;;;;;;;;5091541;28;20131;-45
2021/06/16 04:54:58;;;;;;;13.57;6.57;;;;;;;;;;5091413;28;20032;-48
2021/06/16 04:57:25;;;;;;;12.40;6.88;;;;;;;;;;5092064;28;20070;-41
2021/06/16 04:59:52;;;;;;;13.20;5.97;;;;;;;;;;5091368;28;20047;-47
2021/06/16 05:02:19;;;;;;;13.18;6.65;;;;;;;;;;5092008;28;20028;-48
2021/06/16 05:04:46;;;;;;;13.50;6.70;;;;;;;;;;5091805;28;20020;-52
2021/06/16 05:07:13;;;;;;;14.50;6.65;;;;;;;;;;5091058;28;20387;-42
2021/06/16 05:09:40;;;;;;;14.23;6.68;;;;;;;;;;5091414;28;20063;-45
2021/06/16 05:12:07;;;;;;;13.35;6.05;;;;;;;;;;5091345;28;20024;-42
2021/06/16 05:14:35;;;;;;;15.43;7.40;;;;;;;;;;5091604;28;20032;-40
2021/06/16 05:17:02;;;;;;;17.35;7.03;;;;;;;;;;5091296;28;20024;-43
2021/06/16 05:19:29;;;;;;;14.25;6.63;;;;;;;;;;5091632;28;20020;-47
2021/06/16 05:21:59;;;;;;;14.10;6.57;;;;;;;;;;5090970;28;20115;-46
2021/06/16 05:24:26;;;;;;;14.70;6.30;;;;;;;;;;5091508;28;20032;-46
2021/06/16 05:26:53;;;;;;;13.63;6.30;;;;;;;;;;5091076;28;20013;-42
2021/06/16 05:29:20;;;;;;;14.30;6.47;;;;;;;;;;5091393;28;20024;-45
2021/06/16 05:31:47;;;;;;;16.23;7.13;;;;;;;;;;5091143;28;20103;-45
2021/06/16 05:34:14;;;;;;;12.10;6.47;;;;;;;;;;5094858;28;20019;-43
2021/06/16 05:36:41;;;;;;;15.13;7.20;;;;;;;;;;5094705;28;20016;-47
2021/06/16 05:39:08;;;;;;;13.98;6.55;;;;;;;;;;5095033;28;20012;-47
2021/06/16 05:41:35;;;;;;;12.43;6.20;;;;;;;;;;5094736;28;20157;-43
2021/06/16 05:44:02;;;;;;;13.95;6.65;;;;;;;;;;5095039;28;20387;-49
2021/06/16 05:46:29;;;;;;;12.18;6.72;;;;;;;;;;5095000;28;20368;-48
2021/06/16 05:48:56;;;;;;;11.27;6.25;;;;;;;;;;5094483;28;20035;-51
2021/06/16 05:51:23;;;;;;;12.75;6.28;;;;;;;;;;5093433;28;20127;-40
2021/06/16 05:53:50;;;;;;;13.27;6.22;;;;;;;;;;5094431;28;20032;-47
2021/06/16 05:56:17;;;;;;;14.70;6.82;;;;;;;;;;5094952;28;20024;-42
2021/06/16 05:58:44;;;;;;;12.90;6.57;;;;;;;;;;5094288;28;20032;-40
2021/06/16 06:01:11;;;;;;;15.65;7.32;;;;;;;;;;5094922;28;20081;-47
2021/06/16 06:03:41;;;;;;;10.23;6.20;;;;;;;;;;5094479;28;20059;-41
2021/06/16 06:06:10;;;;;;;11.52;6.18;;;;;;;;;;5095161;28;20371;-44
2021/06/16 06:08:37;;;;;;;11.07;6.13;;;;;;;;;;5093949;28;20042;-48
2021/06/16 06:11:04;;;;;;;10.88;6.30;;;;;;;;;;5094568;28;20017;-40
2021/06/16 06:13:31;;;;;;;12.32;6.13;;;;;;;;;;5094127;28;20020;-41
2021/06/16 06:15:58;;;;;;;11.80;5.68;;;;;;;;;;5094605;28;20046;-40
2021/06/16 06:18:25;;;;;;;12.95;6.35;;;;;;;;;;5094052;28;20020;-40
2021/06/16 06:20:52;;;;;;;11.90;5.75;;;;;;;;;;5094025;28;20024;-41
2021/06/16 06:23:19;;;;;;;11.38;5.88;;;;;;;;;;5094093;28;20031;-41
2021/06/16 06:25:46;;;;;;;10.48;5.85;;;;;;;;;;5094321;28;20028;-37
2021/06/16 06:28:13;;;;;;;13.20;6.05;;;;;;;;;;5094169;28;20061;-38
2021/06/16 06:30:41;;;;;;;10.65;5.88;;;;;;;;;;5093788;28;20059;-39
2021/06/16 06:33:08;;;;;;;12.15;5.22;;;;;;;;;;5094229;28;20027;-39
2021/06/16 06:35:35;;;;;;;10.60;5.80;;;;;;;;;;5093763;28;20069;-40
2021/06/16 06:38:03;;;;;;;9.65;5.78;;;;;;;;;;5094002;28;20533;-39
2021/06/16 06:40:30;;;;;;;9.35;5.28;;;;;;;;;;5093507;28;20109;-40
2021/06/16 06:42:57;;;;;;;12.52;5.95;;;;;;;;;;5094308;28;20096;-39
2021/06/16 06:45:24;;;;;;;12.80;5.70;;;;;;;;;;5092367;28;20035;-38
2021/06/16 06:47:51;;;;;;;10.65;6.13;;;;;;;;;;5093574;28;20059;-40
2021/06/16 06:50:18;;;;;;;10.55;5.60;;;;;;;;;;5093242;28;20475;-41
2021/06/16 06:52:48;;;;;;;10.82;5.70;;;;;;;;;;5093784;28;20052;-41
2021/06/16 06:55:15;;;;;;;11.32;5.60;;;;;;;;;;5093305;28;20020;-39
2021/06/16 06:57:43;;;;;;;11.52;5.82;;;;;;;;;;5093928;28;20016;-40
2021/06/16 07:00:11;;;;;;;9.52;5.47;;;;;;;;;;5092870;28;20078;-39
2021/06/16 07:02:38;;;;;;;8.68;5.07;;;;;;;;;;5093751;28;20016;-41
2021/06/16 07:05:06;;;;;;;8.90;5.03;;;;;;;;;;5092974;28;20081;-41
2021/06/16 07:07:33;;;;;;;9.60;5.43;;;;;;;;;;5093576;28;20032;-40
2021/06/16 07:10:00;;;;;;;9.80;4.72;;;;;;;;;;5092905;28;20028;-38
2021/06/16 07:12:27;;;;;;;9.85;4.97;;;;;;;;;;5093642;28;20034;-40
2021/06/16 07:14:55;;;;;;;9.57;5.10;;;;;;;;;;5093453;28;20023;-40
2021/06/16 07:17:23;;;;;;;7.82;5.20;;;;;;;;;;5092739;28;20024;-44
2021/06/16 07:19:50;;;;;;;9.18;5.40;;;;;;;;;;5093197;28;20020;-42
2021/06/16 07:22:17;;;;;;;9.77;5.10;;;;;;;;;;5092640;28;20031;-40
2021/06/16 07:24:44;;;;;;;9.30;4.93;;;;;;;;;;5093175;28;20042;-41
2021/06/16 07:27:11;;;;;;;7.68;4.85;;;;;;;;;;5092532;28;20024;-39
2021/06/16 07:29:38;;;;;;;9.38;4.22;;;;;;;;;;5093182;28;20048;-45
2021/06/16 07:32:06;;;;;;;9.48;4.95;;;;;;;;;;5092282;28;20529;-39
2021/06/16 07:34:33;;;;;;;10.10;4.95;;;;;;;;;;5092914;28;20036;-39
2021/06/16 07:37:01;;;;;;;9.95;4.70;;;;;;;;;;5092627;28;20517;-38
2021/06/16 07:39:28;;;;;;;9.27;4.72;;;;;;;;;;5092884;28;20020;-43
2021/06/16 07:41:55;;;;;;;7.68;4.40;;;;;;;;;;5092165;28;20044;-44
2021/06/16 07:44:22;;;;;;;8.27;4.97;;;;;;;;;;5092612;28;20069;-46
2021/06/16 07:46:49;;;;;;;9.57;4.60;;;;;;;;;;5092126;28;20095;-41
2021/06/16 07:49:16;;;;;;;9.13;4.55;;;;;;;;;;5092567;28;20105;-39
2021/06/16 07:51:44;;;;;;;8.20;4.80;;;;;;;;;;5091791;28;20036;-40
2021/06/16 07:54:14;;;;;;;8.25;4.50;;;;;;;;;;5092411;28;20023;-39
2021/06/16 07:56:42;;;;;;;10.18;4.90;;;;;;;;;;5092158;28;20020;-38
2021/06/16 07:59:09;;;;;;;8.02;4.22;;;;;;;;;;5092613;28;20437;-39
2021/06/16 08:01:37;;;;;;;9.38;4.80;;;;;;;;;;5092085;28;20031;-41
2021/06/16 08:04:04;;;;;;;9.18;4.68;;;;;;;;;;5091949;28;20031;-38
2021/06/16 08:06:31;;;;;;;9.15;4.35;;;;;;;;;;5092534;28;20039;-41
2021/06/16 08:08:58;;;;;;;6.03;4.13;;;;;;;;;;5091958;28;20110;-44
2021/06/16 08:11:25;;;;;;;8.80;4.30;;;;;;;;;;5092300;28;20554;-47
2021/06/16 08:13:52;;;;;;;8.00;4.43;;;;;;;;;;5091891;28;20081;-45
2021/06/16 08:16:20;;;;;;;9.23;4.55;;;;;;;;;;5107783;28;20455;-51
2021/06/16 08:18:47;;;;;;;8.48;4.45;;;;;;;;;;5091680;28;20030;-43
2021/06/16 08:21:15;;;;;;;7.38;4.13;;;;;;;;;;5092109;28;20020;-42
2021/06/16 08:23:47;;;;;;;10.07;4.60;;;;;;;;;;5091891;28;20042;-44
2021/06/16 08:26:14;;;;;;;8.95;4.00;;;;;;;;;;5107863;28;20024;-40
2021/06/16 08:28:41;;;;;;;5.72;3.78;;;;;;;;;;5091744;28;20036;-41
2021/06/16 08:31:08;;;;;;;6.72;4.20;;;;;;;;;;5092068;28;20016;-40
2021/06/16 08:33:39;;;;;;;7.10;4.43;;;;;;;;;;5091546;28;20395;-47
2021/06/16 08:36:07;;;;;;;7.05;4.05;;;;;;;;;;5091963;28;20031;-44
2021/06/16 08:38:34;;;;;;;6.15;4.07;;;;;;;;;;5091626;28;20024;-51
2021/06/16 08:41:08;;;;;;;6.60;4.25;;;;;;;;;;5092056;28;20023;-52
2021/06/16 08:43:45;;;;;;;9.07;4.43;;;;;;;;;;5091765;28;20048;-42
2021/06/16 08:46:13;;;;;;;7.20;3.67;;;;;;;;;;5091788;28;20013;-43
2021/06/16 08:48:41;;;;;;;8.00;4.13;;;;;;;;;;5092068;28;20122;-48
2021/06/16 08:51:09;;;;;;;6.07;3.90;;;;;;;;;;5091246;28;20033;-49
2021/06/16 08:53:36;;;;;;;6.95;3.63;;;;;;;;;;5091504;28;20032;-45
2021/06/16 08:56:03;;;;;;;8.20;4.28;;;;;;;;;;5091403;28;20043;-48
2021/06/16 08:58:35;;;;;;;5.40;3.80;;;;;;;;;;5092059;28;20478;-51
2021/06/16 09:01:02;;;;;;;7.78;3.78;;;;;;;;;;5091456;28;20024;-46
2021/06/16 09:03:29;;;;;;;10.50;4.28;;;;;;;;;;5091400;28;20030;-45
2021/06/16 09:06:03;;;;;;;6.13;3.35;;;;;;;;;;5091390;28;20020;-51
2021/06/16 09:08:30;;;;;;;6.25;4.10;;;;;;;;;;5094049;28;20028;-46
2021/06/16 09:10:58;;;;;;;7.05;4.13;;;;;;;;;;5095158;28;20046;-47
2021/06/16 09:13:29;;;;;;;8.23;3.72;;;;;;;;;;5095413;28;20531;-41
2021/06/16 09:15:57;;;;;;;6.35;3.85;;;;;;;;;;5095555;28;20114;-43
2021/06/16 09:18:24;;;;;;;7.47;3.47;;;;;;;;;;5095577;28;20020;-46
2021/06/16 09:20:54;;;;;;;6.47;3.78;;;;;;;;;;5095306;28;20020;-40
2021/06/16 09:23:21;;;;;;;5.40;3.63;;;;;;;;;;5095418;28;20114;-55
2021/06/16 09:26:08;;;;;;;5.22;3.45;;;;;;;;;;5094884;28;20016;-53
2021/06/16 09:28:39;;;;;;;5.40;3.55;;;;;;;;;;5095380;28;20032;-53
2021/06/16 09:31:06;;;;;;;5.50;3.70;;;;;;;;;;5095122;28;20024;-49
2021/06/16 09:33:34;;;;;;;8.70;4.10;;;;;;;;;;5095074;28;20395;-47
2021/06/16 09:36:01;;;;;;;6.28;4.00;;;;;;;;;;5094690;28;20128;-46
2021/06/16 09:38:33;;;;;;;7.70;4.25;;;;;;;;;;5095308;28;20035;-38
2021/06/16 09:41:01;;;;;;;6.07;3.70;;;;;;;;;;5094929;28;20020;-43
2021/06/16 09:43:29;;;;;;;7.78;3.97;;;;;;;;;;5095138;28;20083;-46
2021/06/16 09:46:03;;;;;;;7.07;3.80;;;;;;;;;;5095095;28;20050;-48
2021/06/16 09:48:32;;;;;;;8.02;3.83;;;;;;;;;;5094793;28;20039;-50
2021/06/16 09:51:17;;;;;;;7.72;4.00;;;;;;;;;;5094905;28;20139;-51
2021/06/16 09:53:59;;;;;;;7.90;3.88;;;;;;;;;;5094881;28;20031;-47
2021/06/16 09:56:29;;;;;;;8.35;3.58;;;;;;;;;;5094357;28;20024;-50
2021/06/16 09:58:56;;;;;;;8.73;3.95;;;;;;;;;;5094805;28;20357;-49
2021/06/16 10:01:41;;;;;;;8.18;3.53;;;;;;;;;;5094730;28;20044;-50
2021/06/16 10:04:08;;;;;;;6.82;3.67;;;;;;;;;;5094210;28;20027;-51
2021/06/16 10:06:35;;;;;;;6.82;3.42;;;;;;;;;;5094665;28;20024;-52
2021/06/16 10:09:11;;;;;;;5.93;3.42;;;;;;;;;;5093970;28;20035;-47
2021/06/16 10:11:38;;;;;;;8.95;4.15;;;;;;;;;;5094479;28;20505;-45
2021/06/16 10:14:05;;;;;;;5.05;3.38;;;;;;;;;;5093405;28;20024;-47
2021/06/16 10:16:32;;;;;;;12.10;3.80;;;;;;;;;;5094836;28;20020;-58
2021/06/16 10:19:00;;;;;;;5.63;3.58;;;;;;;;;;5092804;28;20016;-38
2021/06/16 10:21:27;;;;;;;6.10;3.55;;;;;;;;;;5094307;28;20028;-38
2021/06/16 10:23:54;;;;;;;6.07;4.03;;;;;;;;;;5093843;28;20070;-38
2021/06/16 10:26:29;;;;;;;9.48;3.75;;;;;;;;;;5094224;28;20035;-38
2021/06/16 10:29:02;;;;;;;6.22;3.40;;;;;;;;;;5093519;28;20036;-38
2021/06/16 10:31:37;;;;;;;6.18;3.40;;;;;;;;;;5094336;28;20028;-38
2021/06/16 10:34:04;;;;;;;7.72;3.92;;;;;;;;;;5093335;28;20103;-38
2021/06/16 10:36:32;;;;;;;6.38;3.63;;;;;;;;;;5094189;28;20020;-43
2021/06/16 10:38:59;;;;;;;6.80;3.70;;;;;;;;;;5092817;28;20016;-37
2021/06/16 10:41:39;;;;;;;6.25;3.80;;;;;;;;;;5093983;28;20016;-39
2021/06/16 10:44:14;;;;;;;5.82;3.78;;;;;;;;;;5093372;28;20398;-38
2021/06/16 10:46:53;;;;;;;6.38;3.65;;;;;;;;;;5092965;28;20024;-38
2021/06/16 10:49:46;;;;;;;6.00;3.50;;;;;;;;;;5073133;28;20624;-38
2021/06/16 10:52:15;;;;;;;8.30;3.90;;;;;;;;;;5067084;28;20048;-38
2021/06/16 10:54:54;;;;;;;7.47;3.92;;;;;;;;;;5072786;28;20507;-38
2021/06/16 10:57:21;;;;;;;5.80;3.70;;;;;;;;;;5079299;28;20020;-39
2021/06/16 10:59:49;;;;;;;6.68;3.45;;;;;;;;;;5092510;28;20034;-39
2021/06/16 11:02:16;;;;;;;6.68;3.67;;;;;;;;;;5092354;28;20039;-48
2021/06/16 11:04:44;;;;;;;7.28;3.72;;;;;;;;;;5091786;28;20060;-39
2021/06/16 11:07:29;;;;;;;6.88;3.47;;;;;;;;;;5092788;28;20103;-41
2021/06/16 11:09:58;;;;;;;6.43;3.83;;;;;;;;;;5092991;28;20479;-40
2021/06/16 11:12:31;;;;;;;5.50;3.45;;;;;;;;;;5093639;28;20024;-41
2021/06/16 11:14:59;;;;;;;8.50;3.83;;;;;;;;;;5091947;28;20746;-39
2021/06/16 11:17:35;;;;;;;7.70;4.30;;;;;;;;;;5092946;28;20031;-38
2021/06/16 11:20:10;;;;;;;6.70;3.72;;;;;;;;;;5091676;28;20024;-38
2021/06/16 11:22:42;;;;;;;10.30;3.97;;;;;;;;;;5089812;28;20055;-38
2021/06/16 11:25:14;;;;;;;9.48;3.92;;;;;;;;;;5091273;28;20020;-42
2021/06/16 11:27:52;;;;;;;12.15;4.03;;;;;;;;;;5091826;28;20036;-37
2021/06/16 11:30:38;;;;;;;11.10;4.25;;;;;;;;;;5089571;28;20113;-33
2021/06/16 11:33:14;;;;;;;8.10;3.75;;;;;;;;;;5089548;28;20035;-36
2021/06/16 11:35:42;;;;;;;11.00;4.20;;;;;;;;;;5091261;28;20020;-38
2021/06/16 11:38:13;;;;;;;7.07;4.15;;;;;;;;;;5092042;28;20028;-37
2021/06/16 11:40:40;;;;;;;9.98;4.10;;;;;;;;;;5091728;28;20404;-37
2021/06/16 11:43:07;;;;;;;6.70;3.72;;;;;;;;;;5087395;28;20020;-33
2021/06/16 11:45:35;;;;;;;7.20;3.85;;;;;;;;;;5091630;28;20470;-36
2021/06/16 11:48:02;;;;;;;9.48;4.22;;;;;;;;;;5089994;28;20115;-38
2021/06/16 11:50:33;;;;;;;8.07;3.47;;;;;;;;;;5090683;28;20016;-39
2021/06/16 11:53:01;;;;;;;7.72;4.07;;;;;;;;;;5089326;28;20028;-41
2021/06/16 11:55:41;;;;;;;6.50;3.90;;;;;;;;;;5089932;28;20020;-34
2021/06/16 11:58:20;;;;;;;8.80;4.47;;;;;;;;;;5091056;28;20051;-37
2021/06/16 12:00:49;;;;;;;8.95;4.22;;;;;;;;;;5090396;28;20024;-50
2021/06/16 12:03:16;;;;;;;9.80;3.88;;;;;;;;;;5091592;28;20379;-43
2021/06/16 12:05:43;;;;;;;8.57;3.92;;;;;;;;;;5091865;28;20020;-50
2021/06/16 12:08:10;;;;;;;9.13;4.93;;;;;;;;;;5088539;28;20031;-46
2021/06/16 12:10:38;;;;;;;8.77;4.53;;;;;;;;;;5092072;28;20050;-49
2021/06/16 12:13:06;;;;;;;6.60;3.85;;;;;;;;;;5091551;28;20088;-47
2021/06/16 12:15:34;;;;;;;9.98;4.25;;;;;;;;;;5091402;28;20024;-38
2021/06/16 12:18:09;;;;;;;11.07;4.35;;;;;;;;;;5090154;28;20060;-60
2021/06/16 12:20:50;;;;;;;14.05;4.50;;;;;;;;;;5089261;28;20016;-41
2021/06/16 12:23:20;;;;;;;8.63;4.13;;;;;;;;;;5081628;28;20099;-48
2021/06/16 12:25:47;;;;;;;10.23;4.32;;;;;;;;;;5091131;28;20492;-52
2021/06/16 12:28:15;;;;;;;8.15;4.13;;;;;;;;;;5090703;28;20040;-46
2021/06/16 12:30:42;;;;;;;10.45;4.15;;;;;;;;;;5090122;28;20454;-48
2021/06/16 12:33:14;;;;;;;12.23;4.15;;;;;;;;;;5089664;28;20028;-43
2021/06/16 12:35:43;;;;;;;11.32;4.00;;;;;;;;;;5090973;28;20024;-48
2021/06/16 12:38:10;;;;;;;14.30;4.10;;;;;;;;;;5087528;28;20817;-45
2021/06/16 12:40:39;;;;;;;12.48;4.35;;;;;;;;;;5091178;28;20387;-51
2021/06/16 12:43:08;;;;;;;7.55;3.85;;;;;;;;;;5088475;28;20024;-50
2021/06/16 12:45:35;;;;;;;10.88;4.20;;;;;;;;;;5090927;28;20388;-49
2021/06/16 12:48:26;;;;;;;10.55;4.75;;;;;;;;;;5091503;28;20028;-56
2021/06/16 12:51:00;;;;;;;9.45;4.03;;;;;;;;;;5091379;28;20044;-52
2021/06/16 12:53:29;;;;;;;14.15;4.85;;;;;;;;;;5091414;28;20024;-48
2021/06/16 12:55:57;;;;;;;14.25;4.43;;;;;;;;;;5088671;28;20012;-53
2021/06/16 12:58:25;;;;;;;13.82;5.35;;;;;;;;;;5090596;28;20020;-50
2021/06/16 13:00:53;;;;;;;12.52;6.22;;;;;;;;;;5090486;28;20069;-46
2021/06/16 13:03:25;;;;;;;15.57;5.20;;;;;;;;;;5090545;28;20433;-43
2021/06/16 13:05:52;;;;;;;16.55;5.38;;;;;;;;;;5087587;28;20095;-52
2021/06/16 13:08:33;;;;;;;17.45;6.18;;;;;;;;;;5088154;28;20024;-40
2021/06/16 13:11:00;;;;;;;12.07;5.25;;;;;;;;;;5090450;28;20021;-40
2021/06/16 13:13:27;;;;;;;13.95;5.80;;;;;;;;;;5091386;28;20491;-40
2021/06/16 13:15:55;;;;;;;13.40;5.88;;;;;;;;;;5090636;28;20020;-44
2021/06/16 13:18:22;;;;;;;12.18;6.30;;;;;;;;;;5089680;28;20028;-46
2021/06/16 13:20:50;;;;;;;14.70;6.03;;;;;;;;;;5089529;28;20551;-41
2021/06/16 13:23:18;;;;;;;12.25;5.90;;;;;;;;;;5091086;28;20028;-43
2021/06/16 13:25:46;;;;;;;14.32;6.60;;;;;;;;;;5090911;28;20070;-41
2021/06/16 13:28:25;;;;;;;17.25;6.85;;;;;;;;;;5090982;28;20135;-48
2021/06/16 13:30:53;;;;;;;14.90;6.55;;;;;;;;;;5088688;28;20387;-42
2021/06/16 13:33:28;;;;;;;17.00;6.40;;;;;;;;;;5087147;28;20028;-37
2021/06/16 13:35:55;;;;;;;14.50;6.63;;;;;;;;;;5088884;28;20490;-46
2021/06/16 13:38:23;;;;;;;21.27;7.07;;;;;;;;;;5089230;28;20376;-39
2021/06/16 13:40:50;;;;;;;19.80;6.35;;;;;;;;;;5089285;28;20024;-46
2021/06/16 13:43:17;;;;;;;15.23;6.38;;;;;;;;;;5088130;28;20656;-40
2021/06/16 13:45:44;;;;;;;21.05;6.32;;;;;;;;;;5086148;28;20016;-38
2021/06/16 13:48:11;;;;;;;20.90;6.25;;;;;;;;;;5088763;28;20036;-41
2021/06/16 13:50:38;;;;;;;15.98;5.93;;;;;;;;;;5089963;28;20111;-42
2021/06/16 13:53:05;;;;;;;17.35;6.00;;;;;;;;;;5085938;28;20031;-41
2021/06/16 13:55:33;;;;;;;18.02;6.72;;;;;;;;;;5091612;28;20136;-43
2021/06/16 13:58:00;;;;;;;17.17;6.82;;;;;;;;;;5092603;28;20025;-40
2021/06/16 14:00:27;;;;;;;19.13;6.60;;;;;;;;;;5093743;28;20163;-39
2021/06/16 14:02:54;;;;;;;17.25;5.90;;;;;;;;;;5093064;28;20023;-42
2021/06/16 14:05:21;;;;;;;22.45;6.60;;;;;;;;;;5093480;28;20020;-35
2021/06/16 14:07:48;;;;;;;21.58;6.25;;;;;;;;;;5090690;28;20077;-45
2021/06/16 14:10:16;;;;;;;17.95;5.55;;;;;;;;;;5093613;28;20020;-38
2021/06/16 14:12:43;;;;;;;15.63;5.40;;;;;;;;;;5091832;28;20035;-35
2021/06/16 14:15:11;;;;;;;28.83;6.35;;;;;;;;;;5093197;28;20020;-43
2021/06/16 14:17:38;;;;;;;21.52;6.68;;;;;;;;;;5093308;28;20046;-43
2021/06/16 14:20:06;;;;;;;27.60;6.35;;;;;;;;;;5092126;28;20035;-47
2021/06/16 14:22:33;;;;;;;28.75;5.65;;;;;;;;;;5093427;28;20016;-36
2021/06/16 14:25:01;;;;;;;22.10;5.70;;;;;;;;;;5094347;28;20521;-43
2021/06/16 14:27:28;;;;;;;21.30;5.90;;;;;;;;;;5093428;28;20041;-44
2021/06/16 14:29:55;;;;;;;22.05;6.00;;;;;;;;;;5092389;28;20020;-38
2021/06/16 14:32:22;;;;;;;25.50;5.07;;;;;;;;;;5092409;28;20027;-40
2021/06/16 14:34:50;;;;;;;20.75;5.00;;;;;;;;;;5093431;28;20020;-61
2021/06/16 14:37:18;;;;;;;21.77;4.72;;;;;;;;;;5093790;28;20024;-42
2021/06/16 14:39:45;;;;;;;13.95;5.20;;;;;;;;;;5093129;28;20483;-48
2021/06/16 14:42:12;;;;;;;13.48;6.55;;;;;;;;;;5091134;28;20028;-43
2021/06/16 14:44:40;;;;;;;13.30;4.72;;;;;;;;;;5090827;28;20066;-39